sensor_id;sensor_type;location;lat;lon;timestamp;P1;durP1;ratioP1;P2;durP2;ratioP2
68247;SDS011;55064;49.636;12.164;2023-12-20T00:01:00;14.88;;;6.72;;
68247;SDS011;55064;49.636;12.164;2023-12-20T00:03:25;15.20;;;6.53;;
68247;SDS011;55064;49.636;12.164;2023-12-20T00:05:50;14.60;;;7.03;;
68247;SDS011;55064;49.636;12.164;2023-12-20T00:08:16;14.18;;;6.38;;
68247;SDS011;55064;49.636;12.164;2023-12-20T00:10:42;14.77;;;6.60;;
68247;SDS011;55064;49.636;12.164;2023-12-20T00:13:08;19.30;;;8.27;;
68247;SDS011;55064;49.636;12.164;2023-12-20T00:15:34;14.97;;;7.20;;
68247;SDS011;55064;49.636;12.164;2023-12-20T00:17:59;16.58;;;7.40;;
68247;SDS011;55064;49.636;12.164;2023-12-20T00:20:25;14.88;;;6.95;;
68247;SDS011;55064;49.636;12.164;2023-12-20T00:22:51;14.07;;;6.63;;
68247;SDS011;55064;49.636;12.164;2023-12-20T00:25:16;14.57;;;6.47;;
68247;SDS011;55064;49.636;12.164;2023-12-20T00:27:42;15.90;;;6.82;;
68247;SDS011;55064;49.636;12.164;2023-12-20T00:30:08;13.70;;;6.67;;
68247;SDS011;55064;49.636;12.164;2023-12-20T00:32:34;15.05;;;6.63;;
68247;SDS011;55064;49.636;12.164;2023-12-20T00:35:00;14.98;;;6.70;;
68247;SDS011;55064;49.636;12.164;2023-12-20T00:37:26;18.00;;;6.87;;
68247;SDS011;55064;49.636;12.164;2023-12-20T00:39:51;13.47;;;6.23;;
68247;SDS011;55064;49.636;12.164;2023-12-20T00:42:16;14.20;;;6.27;;
68247;SDS011;55064;49.636;12.164;2023-12-20T00:44:42;13.37;;;6.33;;
68247;SDS011;55064;49.636;12.164;2023-12-20T00:47:07;15.37;;;6.97;;
68247;SDS011;55064;49.636;12.164;2023-12-20T00:49:32;17.15;;;6.80;;
68247;SDS011;55064;49.636;12.164;2023-12-20T00:51:58;15.67;;;6.87;;
68247;SDS011;55064;49.636;12.164;2023-12-20T00:54:23;16.50;;;6.50;;
68247;SDS011;55064;49.636;12.164;2023-12-20T00:56:48;14.57;;;6.50;;
68247;SDS011;55064;49.636;12.164;2023-12-20T00:59:14;15.43;;;7.13;;
68247;SDS011;55064;49.636;12.164;2023-12-20T01:01:41;13.95;;;6.18;;
68247;SDS011;55064;49.636;12.164;2023-12-20T01:04:07;17.07;;;6.80;;
68247;SDS011;55064;49.636;12.164;2023-12-20T01:06:32;15.87;;;6.87;;
68247;SDS011;55064;49.636;12.164;2023-12-20T01:08:58;16.37;;;6.90;;
68247;SDS011;55064;49.636;12.164;2023-12-20T01:11:23;15.07;;;6.67;;
68247;SDS011;55064;49.636;12.164;2023-12-20T01:13:49;17.40;;;7.35;;
68247;SDS011;55064;49.636;12.164;2023-12-20T01:16:14;14.97;;;6.30;;
68247;SDS011;55064;49.636;12.164;2023-12-20T01:18:39;14.60;;;6.63;;
68247;SDS011;55064;49.636;12.164;2023-12-20T01:21:05;16.20;;;6.63;;
68247;SDS011;55064;49.636;12.164;2023-12-20T01:23:31;17.98;;;7.47;;
68247;SDS011;55064;49.636;12.164;2023-12-20T01:25:57;14.60;;;7.05;;
68247;SDS011;55064;49.636;12.164;2023-12-20T01:28:24;15.77;;;7.00;;
68247;SDS011;55064;49.636;12.164;2023-12-20T01:30:50;18.10;;;7.53;;
68247;SDS011;55064;49.636;12.164;2023-12-20T01:33:15;15.67;;;6.83;;
68247;SDS011;55064;49.636;12.164;2023-12-20T01:35:40;16.93;;;6.67;;
68247;SDS011;55064;49.636;12.164;2023-12-20T01:38:06;16.37;;;7.23;;
68247;SDS011;55064;49.636;12.164;2023-12-20T01:40:32;16.83;;;6.47;;
68247;SDS011;55064;49.636;12.164;2023-12-20T01:43:01;16.00;;;7.23;;
68247;SDS011;55064;49.636;12.164;2023-12-20T01:45:37;16.45;;;6.88;;
68247;SDS011;55064;49.636;12.164;2023-12-20T01:48:03;17.33;;;6.90;;
68247;SDS011;55064;49.636;12.164;2023-12-20T01:50:30;15.75;;;6.63;;
68247;SDS011;55064;49.636;12.164;2023-12-20T01:52:56;14.90;;;5.93;;
68247;SDS011;55064;49.636;12.164;2023-12-20T01:55:27;20.27;;;7.18;;
68247;SDS011;55064;49.636;12.164;2023-12-20T01:57:54;17.17;;;7.05;;
68247;SDS011;55064;49.636;12.164;2023-12-20T02:00:21;16.63;;;7.70;;
68247;SDS011;55064;49.636;12.164;2023-12-20T02:02:48;18.17;;;7.50;;
68247;SDS011;55064;49.636;12.164;2023-12-20T02:05:15;16.52;;;6.95;;
68247;SDS011;55064;49.636;12.164;2023-12-20T02:07:41;17.17;;;7.45;;
68247;SDS011;55064;49.636;12.164;2023-12-20T02:10:07;15.67;;;6.40;;
68247;SDS011;55064;49.636;12.164;2023-12-20T02:12:33;18.50;;;7.80;;
68247;SDS011;55064;49.636;12.164;2023-12-20T02:14:58;15.90;;;6.90;;
68247;SDS011;55064;49.636;12.164;2023-12-20T02:17:24;17.90;;;7.17;;
68247;SDS011;55064;49.636;12.164;2023-12-20T02:19:49;15.07;;;6.50;;
68247;SDS011;55064;49.636;12.164;2023-12-20T02:22:15;18.67;;;7.00;;
68247;SDS011;55064;49.636;12.164;2023-12-20T02:24:40;17.03;;;7.13;;
68247;SDS011;55064;49.636;12.164;2023-12-20T02:27:06;17.17;;;7.40;;
68247;SDS011;55064;49.636;12.164;2023-12-20T02:29:33;18.05;;;7.43;;
68247;SDS011;55064;49.636;12.164;2023-12-20T02:31:59;16.73;;;7.90;;
68247;SDS011;55064;49.636;12.164;2023-12-20T02:34:24;16.37;;;6.77;;
68247;SDS011;55064;49.636;12.164;2023-12-20T02:36:50;18.03;;;6.80;;
68247;SDS011;55064;49.636;12.164;2023-12-20T02:39:15;14.10;;;6.55;;
68247;SDS011;55064;49.636;12.164;2023-12-20T02:41:41;15.23;;;6.63;;
68247;SDS011;55064;49.636;12.164;2023-12-20T02:44:06;14.00;;;5.90;;
68247;SDS011;55064;49.636;12.164;2023-12-20T02:46:31;16.33;;;6.53;;
68247;SDS011;55064;49.636;12.164;2023-12-20T02:48:57;14.40;;;5.60;;
68247;SDS011;55064;49.636;12.164;2023-12-20T02:51:22;13.63;;;5.60;;
68247;SDS011;55064;49.636;12.164;2023-12-20T02:53:48;13.57;;;5.33;;
68247;SDS011;55064;49.636;12.164;2023-12-20T02:56:13;13.07;;;5.67;;
68247;SDS011;55064;49.636;12.164;2023-12-20T02:58:39;12.18;;;5.40;;
68247;SDS011;55064;49.636;12.164;2023-12-20T03:01:05;8.02;;;3.03;;
68247;SDS011;55064;49.636;12.164;2023-12-20T03:03:31;8.53;;;3.17;;
68247;SDS011;55064;49.636;12.164;2023-12-20T03:05:57;7.63;;;2.80;;
68247;SDS011;55064;49.636;12.164;2023-12-20T03:08:22;8.50;;;3.23;;
68247;SDS011;55064;49.636;12.164;2023-12-20T03:10:48;9.23;;;3.03;;
68247;SDS011;55064;49.636;12.164;2023-12-20T03:13:13;7.90;;;2.92;;
68247;SDS011;55064;49.636;12.164;2023-12-20T03:15:39;9.85;;;3.00;;
68247;SDS011;55064;49.636;12.164;2023-12-20T03:18:05;9.87;;;3.33;;
68247;SDS011;55064;49.636;12.164;2023-12-20T03:20:30;8.93;;;3.10;;
68247;SDS011;55064;49.636;12.164;2023-12-20T03:22:59;8.40;;;2.83;;
68247;SDS011;55064;49.636;12.164;2023-12-20T03:25:25;6.68;;;2.40;;
68247;SDS011;55064;49.636;12.164;2023-12-20T03:27:50;4.67;;;1.27;;
68247;SDS011;55064;49.636;12.164;2023-12-20T03:30:15;4.87;;;1.40;;
68247;SDS011;55064;49.636;12.164;2023-12-20T03:32:41;3.73;;;1.00;;
68247;SDS011;55064;49.636;12.164;2023-12-20T03:35:06;3.87;;;1.10;;
68247;SDS011;55064;49.636;12.164;2023-12-20T03:37:31;4.20;;;1.10;;
68247;SDS011;55064;49.636;12.164;2023-12-20T03:39:57;3.57;;;1.07;;
68247;SDS011;55064;49.636;12.164;2023-12-20T03:42:22;4.43;;;0.90;;
68247;SDS011;55064;49.636;12.164;2023-12-20T03:44:47;3.63;;;1.00;;
68247;SDS011;55064;49.636;12.164;2023-12-20T03:47:13;6.83;;;0.83;;
68247;SDS011;55064;49.636;12.164;2023-12-20T03:49:38;2.80;;;0.60;;
68247;SDS011;55064;49.636;12.164;2023-12-20T03:52:04;2.60;;;0.50;;
68247;SDS011;55064;49.636;12.164;2023-12-20T03:54:30;2.10;;;0.50;;
68247;SDS011;55064;49.636;12.164;2023-12-20T03:56:55;2.25;;;0.50;;
68247;SDS011;55064;49.636;12.164;2023-12-20T03:59:20;3.40;;;0.50;;
68247;SDS011;55064;49.636;12.164;2023-12-20T04:01:46;4.20;;;0.70;;
68247;SDS011;55064;49.636;12.164;2023-12-20T04:04:11;3.20;;;0.57;;
68247;SDS011;55064;49.636;12.164;2023-12-20T04:06:37;3.33;;;0.57;;
68247;SDS011;55064;49.636;12.164;2023-12-20T04:09:03;2.65;;;0.60;;
68247;SDS011;55064;49.636;12.164;2023-12-20T04:11:28;4.73;;;0.70;;
68247;SDS011;55064;49.636;12.164;2023-12-20T04:13:53;2.70;;;0.57;;
68247;SDS011;55064;49.636;12.164;2023-12-20T04:16:19;1.70;;;0.50;;
68247;SDS011;55064;49.636;12.164;2023-12-20T04:18:44;3.80;;;0.63;;
68247;SDS011;55064;49.636;12.164;2023-12-20T04:21:10;4.90;;;0.70;;
68247;SDS011;55064;49.636;12.164;2023-12-20T04:23:35;2.20;;;0.60;;
68247;SDS011;55064;49.636;12.164;2023-12-20T04:26:00;2.88;;;0.50;;
68247;SDS011;55064;49.636;12.164;2023-12-20T04:28:26;3.83;;;0.73;;
68247;SDS011;55064;49.636;12.164;2023-12-20T04:30:51;4.47;;;0.60;;
68247;SDS011;55064;49.636;12.164;2023-12-20T04:33:17;2.07;;;0.60;;
68247;SDS011;55064;49.636;12.164;2023-12-20T04:35:42;2.87;;;0.60;;
68247;SDS011;55064;49.636;12.164;2023-12-20T04:38:08;2.92;;;0.50;;
68247;SDS011;55064;49.636;12.164;2023-12-20T04:40:34;2.42;;;0.50;;
68247;SDS011;55064;49.636;12.164;2023-12-20T04:42:59;2.37;;;0.43;;
68247;SDS011;55064;49.636;12.164;2023-12-20T04:45:25;1.90;;;0.30;;
68247;SDS011;55064;49.636;12.164;2023-12-20T04:47:51;2.07;;;0.60;;
68247;SDS011;55064;49.636;12.164;2023-12-20T04:50:16;1.27;;;0.30;;
68247;SDS011;55064;49.636;12.164;2023-12-20T04:52:42;1.70;;;0.30;;
68247;SDS011;55064;49.636;12.164;2023-12-20T04:55:07;3.97;;;0.43;;
68247;SDS011;55064;49.636;12.164;2023-12-20T04:57:33;1.67;;;0.40;;
68247;SDS011;55064;49.636;12.164;2023-12-20T04:59:59;1.27;;;0.33;;
68247;SDS011;55064;49.636;12.164;2023-12-20T05:02:25;2.63;;;0.57;;
68247;SDS011;55064;49.636;12.164;2023-12-20T05:04:50;2.37;;;0.57;;
68247;SDS011;55064;49.636;12.164;2023-12-20T05:07:15;1.73;;;0.40;;
68247;SDS011;55064;49.636;12.164;2023-12-20T05:09:41;3.13;;;0.50;;
68247;SDS011;55064;49.636;12.164;2023-12-20T05:12:06;1.97;;;0.40;;
68247;SDS011;55064;49.636;12.164;2023-12-20T05:14:32;2.43;;;0.60;;
68247;SDS011;55064;49.636;12.164;2023-12-20T05:16:58;2.57;;;0.50;;
68247;SDS011;55064;49.636;12.164;2023-12-20T05:19:23;3.00;;;0.70;;
68247;SDS011;55064;49.636;12.164;2023-12-20T05:21:49;5.90;;;1.00;;
68247;SDS011;55064;49.636;12.164;2023-12-20T05:24:15;4.15;;;0.80;;
68247;SDS011;55064;49.636;12.164;2023-12-20T05:26:40;5.17;;;0.83;;
68247;SDS011;55064;49.636;12.164;2023-12-20T05:29:05;3.67;;;0.80;;
68247;SDS011;55064;49.636;12.164;2023-12-20T05:31:31;3.27;;;0.80;;
68247;SDS011;55064;49.636;12.164;2023-12-20T05:33:56;3.50;;;0.77;;
68247;SDS011;55064;49.636;12.164;2023-12-20T05:36:22;2.53;;;0.67;;
68247;SDS011;55064;49.636;12.164;2023-12-20T05:38:47;2.63;;;0.53;;
68247;SDS011;55064;49.636;12.164;2023-12-20T05:41:13;3.05;;;0.57;;
68247;SDS011;55064;49.636;12.164;2023-12-20T05:43:39;3.13;;;0.60;;
68247;SDS011;55064;49.636;12.164;2023-12-20T05:46:04;1.40;;;0.30;;
68247;SDS011;55064;49.636;12.164;2023-12-20T05:48:30;2.00;;;0.40;;
68247;SDS011;55064;49.636;12.164;2023-12-20T05:50:55;1.48;;;0.40;;
68247;SDS011;55064;49.636;12.164;2023-12-20T05:53:21;3.23;;;0.47;;
68247;SDS011;55064;49.636;12.164;2023-12-20T05:55:46;1.33;;;0.30;;
68247;SDS011;55064;49.636;12.164;2023-12-20T05:58:11;1.70;;;0.50;;
68247;SDS011;55064;49.636;12.164;2023-12-20T06:00:37;2.45;;;0.40;;
68247;SDS011;55064;49.636;12.164;2023-12-20T06:03:03;3.20;;;0.50;;
68247;SDS011;55064;49.636;12.164;2023-12-20T06:05:30;2.45;;;0.38;;
68247;SDS011;55064;49.636;12.164;2023-12-20T06:07:55;2.45;;;0.50;;
68247;SDS011;55064;49.636;12.164;2023-12-20T06:10:26;1.80;;;0.40;;
68247;SDS011;55064;49.636;12.164;2023-12-20T06:12:51;3.95;;;0.60;;
68247;SDS011;55064;49.636;12.164;2023-12-20T06:15:17;2.87;;;0.50;;
68247;SDS011;55064;49.636;12.164;2023-12-20T06:17:42;1.70;;;0.50;;
68247;SDS011;55064;49.636;12.164;2023-12-20T06:20:08;2.80;;;0.60;;
68247;SDS011;55064;49.636;12.164;2023-12-20T06:22:34;3.00;;;0.70;;
68247;SDS011;55064;49.636;12.164;2023-12-20T06:25:00;4.50;;;0.70;;
68247;SDS011;55064;49.636;12.164;2023-12-20T06:27:26;3.90;;;0.90;;
68247;SDS011;55064;49.636;12.164;2023-12-20T06:29:52;4.30;;;1.17;;
68247;SDS011;55064;49.636;12.164;2023-12-20T06:32:17;4.03;;;1.00;;
68247;SDS011;55064;49.636;12.164;2023-12-20T06:34:42;3.10;;;0.80;;
68247;SDS011;55064;49.636;12.164;2023-12-20T06:37:08;3.77;;;0.90;;
68247;SDS011;55064;49.636;12.164;2023-12-20T06:39:33;3.43;;;0.80;;
68247;SDS011;55064;49.636;12.164;2023-12-20T06:41:59;3.92;;;0.90;;
68247;SDS011;55064;49.636;12.164;2023-12-20T06:44:24;3.30;;;0.90;;
68247;SDS011;55064;49.636;12.164;2023-12-20T06:46:50;2.73;;;0.63;;
68247;SDS011;55064;49.636;12.164;2023-12-20T06:49:15;3.87;;;0.70;;
68247;SDS011;55064;49.636;12.164;2023-12-20T06:51:41;3.77;;;0.90;;
68247;SDS011;55064;49.636;12.164;2023-12-20T06:54:06;3.17;;;0.70;;
68247;SDS011;55064;49.636;12.164;2023-12-20T06:56:32;4.20;;;0.90;;
68247;SDS011;55064;49.636;12.164;2023-12-20T06:58:57;3.13;;;0.80;;
68247;SDS011;55064;49.636;12.164;2023-12-20T07:01:23;3.23;;;0.97;;
68247;SDS011;55064;49.636;12.164;2023-12-20T07:03:48;4.18;;;0.80;;
68247;SDS011;55064;49.636;12.164;2023-12-20T07:06:13;3.37;;;0.70;;
68247;SDS011;55064;49.636;12.164;2023-12-20T07:08:41;2.63;;;0.80;;
68247;SDS011;55064;49.636;12.164;2023-12-20T07:11:06;3.67;;;0.90;;
68247;SDS011;55064;49.636;12.164;2023-12-20T07:13:32;3.40;;;1.00;;
68247;SDS011;55064;49.636;12.164;2023-12-20T07:15:57;4.03;;;0.97;;
68247;SDS011;55064;49.636;12.164;2023-12-20T07:18:23;4.23;;;1.00;;
68247;SDS011;55064;49.636;12.164;2023-12-20T07:20:48;5.30;;;1.30;;
68247;SDS011;55064;49.636;12.164;2023-12-20T07:23:14;3.80;;;1.07;;
68247;SDS011;55064;49.636;12.164;2023-12-20T07:25:39;4.17;;;1.17;;
68247;SDS011;55064;49.636;12.164;2023-12-20T07:28:04;4.10;;;1.23;;
68247;SDS011;55064;49.636;12.164;2023-12-20T07:30:30;3.40;;;1.07;;
68247;SDS011;55064;49.636;12.164;2023-12-20T07:32:55;3.73;;;1.00;;
68247;SDS011;55064;49.636;12.164;2023-12-20T07:35:21;4.50;;;1.00;;
68247;SDS011;55064;49.636;12.164;2023-12-20T07:37:48;3.33;;;0.88;;
68247;SDS011;55064;49.636;12.164;2023-12-20T07:40:13;2.97;;;0.80;;
68247;SDS011;55064;49.636;12.164;2023-12-20T07:42:38;2.97;;;0.77;;
68247;SDS011;55064;49.636;12.164;2023-12-20T07:45:05;3.65;;;0.98;;
68247;SDS011;55064;49.636;12.164;2023-12-20T07:47:30;2.57;;;0.60;;
68247;SDS011;55064;49.636;12.164;2023-12-20T07:49:56;4.90;;;0.80;;
68247;SDS011;55064;49.636;12.164;2023-12-20T07:52:21;4.03;;;0.90;;
68247;SDS011;55064;49.636;12.164;2023-12-20T07:54:47;3.55;;;0.80;;
68247;SDS011;55064;49.636;12.164;2023-12-20T07:57:13;3.73;;;0.97;;
68247;SDS011;55064;49.636;12.164;2023-12-20T07:59:38;3.67;;;0.90;;
68247;SDS011;55064;49.636;12.164;2023-12-20T08:02:03;4.27;;;1.30;;
68247;SDS011;55064;49.636;12.164;2023-12-20T08:04:29;4.45;;;1.20;;
68247;SDS011;55064;49.636;12.164;2023-12-20T08:06:54;4.43;;;1.30;;
68247;SDS011;55064;49.636;12.164;2023-12-20T08:09:20;4.33;;;1.30;;
68247;SDS011;55064;49.636;12.164;2023-12-20T08:11:46;5.40;;;1.57;;
68247;SDS011;55064;49.636;12.164;2023-12-20T08:14:11;4.70;;;1.40;;
68247;SDS011;55064;49.636;12.164;2023-12-20T08:16:37;5.43;;;1.70;;
68247;SDS011;55064;49.636;12.164;2023-12-20T08:19:02;5.27;;;1.70;;
68247;SDS011;55064;49.636;12.164;2023-12-20T08:21:27;5.63;;;1.87;;
68247;SDS011;55064;49.636;12.164;2023-12-20T08:23:53;5.30;;;1.92;;
68247;SDS011;55064;49.636;12.164;2023-12-20T08:26:19;7.37;;;2.70;;
68247;SDS011;55064;49.636;12.164;2023-12-20T08:28:46;6.30;;;2.13;;
68247;SDS011;55064;49.636;12.164;2023-12-20T08:31:14;5.73;;;1.90;;
68247;SDS011;55064;49.636;12.164;2023-12-20T08:33:43;5.90;;;1.90;;
68247;SDS011;55064;49.636;12.164;2023-12-20T08:36:10;5.97;;;2.20;;
68247;SDS011;55064;49.636;12.164;2023-12-20T08:38:35;6.57;;;2.37;;
68247;SDS011;55064;49.636;12.164;2023-12-20T08:41:01;7.17;;;2.70;;
68247;SDS011;55064;49.636;12.164;2023-12-20T08:43:27;6.70;;;2.45;;
68247;SDS011;55064;49.636;12.164;2023-12-20T08:45:53;8.30;;;2.53;;
68247;SDS011;55064;49.636;12.164;2023-12-20T08:48:19;7.60;;;3.10;;
68247;SDS011;55064;49.636;12.164;2023-12-20T08:50:44;6.70;;;2.40;;
68247;SDS011;55064;49.636;12.164;2023-12-20T08:53:09;7.10;;;2.70;;
68247;SDS011;55064;49.636;12.164;2023-12-20T08:55:35;7.13;;;2.60;;
68247;SDS011;55064;49.636;12.164;2023-12-20T08:58:00;7.03;;;2.50;;
68247;SDS011;55064;49.636;12.164;2023-12-20T09:00:25;7.87;;;2.87;;
68247;SDS011;55064;49.636;12.164;2023-12-20T09:02:52;6.95;;;2.70;;
68247;SDS011;55064;49.636;12.164;2023-12-20T09:05:19;8.77;;;3.30;;
68247;SDS011;55064;49.636;12.164;2023-12-20T09:07:44;7.13;;;3.00;;
68247;SDS011;55064;49.636;12.164;2023-12-20T09:10:09;8.33;;;2.60;;
68247;SDS011;55064;49.636;12.164;2023-12-20T09:12:35;7.57;;;2.83;;
68247;SDS011;55064;49.636;12.164;2023-12-20T09:15:01;8.75;;;2.40;;
68247;SDS011;55064;49.636;12.164;2023-12-20T09:17:28;7.53;;;3.08;;
68247;SDS011;55064;49.636;12.164;2023-12-20T09:19:53;8.00;;;3.43;;
68247;SDS011;55064;49.636;12.164;2023-12-20T09:22:19;8.40;;;3.20;;
68247;SDS011;55064;49.636;12.164;2023-12-20T09:24:44;9.27;;;3.03;;
68247;SDS011;55064;49.636;12.164;2023-12-20T09:27:10;9.37;;;3.13;;
68247;SDS011;55064;49.636;12.164;2023-12-20T09:29:35;7.70;;;2.80;;
68247;SDS011;55064;49.636;12.164;2023-12-20T09:32:01;11.70;;;3.47;;
68247;SDS011;55064;49.636;12.164;2023-12-20T09:34:26;9.88;;;3.03;;
68247;SDS011;55064;49.636;12.164;2023-12-20T09:36:52;7.50;;;3.03;;
68247;SDS011;55064;49.636;12.164;2023-12-20T09:39:18;8.57;;;3.00;;
68247;SDS011;55064;49.636;12.164;2023-12-20T09:41:46;8.67;;;3.23;;
68247;SDS011;55064;49.636;12.164;2023-12-20T09:44:29;9.98;;;2.67;;
68247;SDS011;55064;49.636;12.164;2023-12-20T09:46:56;7.30;;;3.20;;
68247;SDS011;55064;49.636;12.164;2023-12-20T09:49:22;6.68;;;2.65;;
68247;SDS011;55064;49.636;12.164;2023-12-20T09:51:50;7.03;;;2.70;;
68247;SDS011;55064;49.636;12.164;2023-12-20T09:54:17;7.80;;;2.72;;
68247;SDS011;55064;49.636;12.164;2023-12-20T09:56:43;7.40;;;2.70;;
68247;SDS011;55064;49.636;12.164;2023-12-20T09:59:09;6.32;;;2.28;;
68247;SDS011;55064;49.636;12.164;2023-12-20T10:01:35;6.57;;;2.40;;
68247;SDS011;55064;49.636;12.164;2023-12-20T10:04:01;5.70;;;2.25;;
68247;SDS011;55064;49.636;12.164;2023-12-20T10:06:33;6.90;;;2.20;;
68247;SDS011;55064;49.636;12.164;2023-12-20T10:08:59;6.38;;;2.30;;
68247;SDS011;55064;49.636;12.164;2023-12-20T10:11:25;7.07;;;2.40;;
68247;SDS011;55064;49.636;12.164;2023-12-20T10:13:50;6.37;;;2.27;;
68247;SDS011;55064;49.636;12.164;2023-12-20T10:16:16;7.43;;;2.53;;
68247;SDS011;55064;49.636;12.164;2023-12-20T10:18:41;7.73;;;3.00;;
68247;SDS011;55064;49.636;12.164;2023-12-20T10:21:06;6.90;;;2.30;;
68247;SDS011;55064;49.636;12.164;2023-12-20T10:23:35;7.13;;;1.95;;
68247;SDS011;55064;49.636;12.164;2023-12-20T10:26:00;5.45;;;1.80;;
68247;SDS011;55064;49.636;12.164;2023-12-20T10:28:26;6.67;;;2.47;;
68247;SDS011;55064;49.636;12.164;2023-12-20T10:30:54;5.85;;;2.20;;
68247;SDS011;55064;49.636;12.164;2023-12-20T10:33:23;8.27;;;2.30;;
68247;SDS011;55064;49.636;12.164;2023-12-20T10:35:50;7.03;;;2.20;;
68247;SDS011;55064;49.636;12.164;2023-12-20T10:38:16;6.30;;;2.40;;
68247;SDS011;55064;49.636;12.164;2023-12-20T10:40:42;5.60;;;2.00;;
68247;SDS011;55064;49.636;12.164;2023-12-20T10:43:08;5.07;;;1.67;;
68247;SDS011;55064;49.636;12.164;2023-12-20T10:45:34;5.63;;;1.57;;
68247;SDS011;55064;49.636;12.164;2023-12-20T10:48:01;5.75;;;1.90;;
68247;SDS011;55064;49.636;12.164;2023-12-20T10:50:27;6.95;;;1.90;;
68247;SDS011;55064;49.636;12.164;2023-12-20T10:52:56;5.10;;;1.88;;
68247;SDS011;55064;49.636;12.164;2023-12-20T10:55:22;4.30;;;1.30;;
68247;SDS011;55064;49.636;12.164;2023-12-20T10:57:49;4.63;;;1.40;;
68247;SDS011;55064;49.636;12.164;2023-12-20T11:00:16;5.22;;;1.63;;
68247;SDS011;55064;49.636;12.164;2023-12-20T11:02:43;5.28;;;1.50;;
68247;SDS011;55064;49.636;12.164;2023-12-20T11:08:28;4.53;;;1.30;;
68247;SDS011;55064;49.636;12.164;2023-12-20T11:10:35;5.65;;;1.40;;
68247;SDS011;55064;49.636;12.164;2023-12-20T11:13:10;6.45;;;1.45;;
68247;SDS011;55064;49.636;12.164;2023-12-20T11:15:41;7.97;;;2.05;;
68247;SDS011;55064;49.636;12.164;2023-12-20T11:18:07;6.83;;;1.90;;
68247;SDS011;55064;49.636;12.164;2023-12-20T11:20:37;7.13;;;1.90;;
68247;SDS011;55064;49.636;12.164;2023-12-20T11:23:03;5.32;;;1.55;;
68247;SDS011;55064;49.636;12.164;2023-12-20T11:25:29;6.35;;;1.63;;
68247;SDS011;55064;49.636;12.164;2023-12-20T11:28:08;5.10;;;1.27;;
68247;SDS011;55064;49.636;12.164;2023-12-20T11:30:47;6.53;;;1.90;;
68247;SDS011;55064;49.636;12.164;2023-12-20T11:33:14;5.50;;;1.52;;
68247;SDS011;55064;49.636;12.164;2023-12-20T11:35:41;7.90;;;1.58;;
68247;SDS011;55064;49.636;12.164;2023-12-20T11:38:07;8.85;;;2.05;;
68247;SDS011;55064;49.636;12.164;2023-12-20T11:40:36;7.10;;;2.50;;
68247;SDS011;55064;49.636;12.164;2023-12-20T11:43:02;5.93;;;2.00;;
68247;SDS011;55064;49.636;12.164;2023-12-20T11:45:28;6.15;;;1.58;;
68247;SDS011;55064;49.636;12.164;2023-12-20T11:47:53;7.43;;;1.80;;
68247;SDS011;55064;49.636;12.164;2023-12-20T11:50:20;7.22;;;2.08;;
68247;SDS011;55064;49.636;12.164;2023-12-20T11:52:46;5.65;;;1.58;;
68247;SDS011;55064;49.636;12.164;2023-12-20T11:55:12;4.77;;;1.30;;
68247;SDS011;55064;49.636;12.164;2023-12-20T11:57:38;6.43;;;1.70;;
68247;SDS011;55064;49.636;12.164;2023-12-20T12:00:04;7.07;;;1.50;;
68247;SDS011;55064;49.636;12.164;2023-12-20T12:02:31;6.13;;;1.75;;
68247;SDS011;55064;49.636;12.164;2023-12-20T12:04:56;6.05;;;1.90;;
68247;SDS011;55064;49.636;12.164;2023-12-20T12:07:23;10.03;;;2.27;;
68247;SDS011;55064;49.636;12.164;2023-12-20T12:09:49;6.63;;;2.55;;
68247;SDS011;55064;49.636;12.164;2023-12-20T12:12:14;6.60;;;2.70;;
68247;SDS011;55064;49.636;12.164;2023-12-20T12:14:40;7.05;;;2.60;;
68247;SDS011;55064;49.636;12.164;2023-12-20T12:17:15;6.23;;;2.10;;
68247;SDS011;55064;49.636;12.164;2023-12-20T12:19:41;6.70;;;2.15;;
68247;SDS011;55064;49.636;12.164;2023-12-20T12:22:10;7.03;;;2.30;;
68247;SDS011;55064;49.636;12.164;2023-12-20T12:24:41;8.40;;;1.90;;
68247;SDS011;55064;49.636;12.164;2023-12-20T12:27:13;7.53;;;1.67;;
68247;SDS011;55064;49.636;12.164;2023-12-20T12:29:39;9.30;;;2.70;;
68247;SDS011;55064;49.636;12.164;2023-12-20T12:32:05;9.50;;;2.30;;
68247;SDS011;55064;49.636;12.164;2023-12-20T12:34:32;6.37;;;1.63;;
68247;SDS011;55064;49.636;12.164;2023-12-20T12:36:59;9.27;;;2.00;;
68247;SDS011;55064;49.636;12.164;2023-12-20T12:39:24;6.25;;;1.80;;
68247;SDS011;55064;49.636;12.164;2023-12-20T12:41:50;8.97;;;2.27;;
68247;SDS011;55064;49.636;12.164;2023-12-20T12:44:16;7.10;;;1.80;;
68247;SDS011;55064;49.636;12.164;2023-12-20T12:46:42;7.80;;;1.83;;
68247;SDS011;55064;49.636;12.164;2023-12-20T12:49:08;9.67;;;2.00;;
68247;SDS011;55064;49.636;12.164;2023-12-20T12:51:33;8.83;;;2.20;;
68247;SDS011;55064;49.636;12.164;2023-12-20T12:53:59;8.67;;;2.30;;
68247;SDS011;55064;49.636;12.164;2023-12-20T12:56:24;6.30;;;1.73;;
68247;SDS011;55064;49.636;12.164;2023-12-20T12:58:49;8.47;;;2.07;;
68247;SDS011;55064;49.636;12.164;2023-12-20T13:01:15;6.87;;;1.70;;
68247;SDS011;55064;49.636;12.164;2023-12-20T13:03:40;6.40;;;2.10;;
68247;SDS011;55064;49.636;12.164;2023-12-20T13:06:06;7.40;;;2.20;;
68247;SDS011;55064;49.636;12.164;2023-12-20T13:08:33;8.55;;;2.38;;
68247;SDS011;55064;49.636;12.164;2023-12-20T13:10:59;9.07;;;3.58;;
68247;SDS011;55064;49.636;12.164;2023-12-20T13:13:26;8.27;;;2.53;;
68247;SDS011;55064;49.636;12.164;2023-12-20T13:15:52;6.13;;;1.60;;
68247;SDS011;55064;49.636;12.164;2023-12-20T13:18:20;9.23;;;1.88;;
68247;SDS011;55064;49.636;12.164;2023-12-20T13:20:46;9.40;;;1.42;;
68247;SDS011;55064;49.636;12.164;2023-12-20T13:23:11;5.07;;;1.30;;
68247;SDS011;55064;49.636;12.164;2023-12-20T13:25:36;6.50;;;1.90;;
68247;SDS011;55064;49.636;12.164;2023-12-20T13:28:02;10.00;;;2.05;;
68247;SDS011;55064;49.636;12.164;2023-12-20T13:30:30;7.10;;;1.60;;
68247;SDS011;55064;49.636;12.164;2023-12-20T13:32:55;5.38;;;1.30;;
68247;SDS011;55064;49.636;12.164;2023-12-20T13:35:21;5.70;;;1.10;;
68247;SDS011;55064;49.636;12.164;2023-12-20T13:37:46;5.80;;;1.50;;
68247;SDS011;55064;49.636;12.164;2023-12-20T13:40:12;7.67;;;1.50;;
68247;SDS011;55064;49.636;12.164;2023-12-20T13:42:37;5.95;;;1.48;;
68247;SDS011;55064;49.636;12.164;2023-12-20T13:45:06;7.50;;;1.73;;
68247;SDS011;55064;49.636;12.164;2023-12-20T13:47:32;9.85;;;1.90;;
68247;SDS011;55064;49.636;12.164;2023-12-20T13:49:58;6.40;;;1.90;;
68247;SDS011;55064;49.636;12.164;2023-12-20T13:52:23;7.40;;;2.07;;
68247;SDS011;55064;49.636;12.164;2023-12-20T13:54:49;5.27;;;1.53;;
68247;SDS011;55064;49.636;12.164;2023-12-20T13:57:14;9.17;;;1.80;;
68247;SDS011;55064;49.636;12.164;2023-12-20T13:59:39;6.43;;;1.70;;
68247;SDS011;55064;49.636;12.164;2023-12-20T14:02:05;8.87;;;2.00;;
68247;SDS011;55064;49.636;12.164;2023-12-20T14:04:30;7.10;;;1.80;;
68247;SDS011;55064;49.636;12.164;2023-12-20T14:06:56;9.53;;;1.60;;
68247;SDS011;55064;49.636;12.164;2023-12-20T14:09:22;6.13;;;1.80;;
68247;SDS011;55064;49.636;12.164;2023-12-20T14:11:47;6.37;;;1.60;;
68247;SDS011;55064;49.636;12.164;2023-12-20T14:14:12;7.33;;;1.70;;
68247;SDS011;55064;49.636;12.164;2023-12-20T14:16:38;8.60;;;1.63;;
68247;SDS011;55064;49.636;12.164;2023-12-20T14:19:03;6.97;;;1.83;;
68247;SDS011;55064;49.636;12.164;2023-12-20T14:21:31;4.72;;;1.23;;
68247;SDS011;55064;49.636;12.164;2023-12-20T14:23:56;6.10;;;1.60;;
68247;SDS011;55064;49.636;12.164;2023-12-20T14:26:22;5.90;;;1.40;;